Nearby METAR Reports

 

KMTN - Baltimore/Martin, Maryland, USA
Distance from station: SSE 8mi, 13km
Updated: Wed, 01-Apr-2015 4:50pm EDT
Partly cloudy
Partly cloudy
 Wind from WNW
Wind: WNW 14 mph , 22 km/h, Gust: 21 mph , 33 km/h
Temperature: 57°F , 14°C
Dew Point: 28°F , -2°C
Humidity: 33%
Barometer: 30.15 inHg , 1021 hPa
Clouds: Partly cloudy
Visibility: 10 miles , 16 km
Cloud details: Partly cloudy 5000 ft
2015/04/01 20:50 KMTN 012050Z 29012G18KT 10SM SCT050 14/M02 A3015
KDMH - Baltimore/Dwntwn, Maryland, USA
Distance from station: SW 12mi, 19km
Updated: Wed, 01-Apr-2015 4:54pm EDT

 
Temperature: 55°F , 13°C
Dew Point: 21°F , -6°C
Humidity: 26%
Barometer: 30.14 inHg , 1020.7 hPa
2015/04/01 20:54 KDMH 012054Z AUTO 13/M06 A3014 RMK AO1 SLP207 T01331056 55001
 
KBWI - Balto/Wash Intl, Maryland, USA
Distance from station: SSW 20mi, 33km
Updated: Wed, 01-Apr-2015 4:54pm EDT
Mostly cloudy
Mostly cloudy
 Wind from NW
Wind: NW 13 mph , 20 km/h, Gust: 21 mph , 33 km/h
Temperature: 55°F , 13°C
Dew Point: 25°F , -4°C
Humidity: 31%
Barometer: 30.14 inHg , 1020.7 hPa
Clouds: Mostly cloudy
Visibility: 10 miles , 16 km
Cloud details: Mostly cloudy 7500 ft
2015/04/01 20:54 KBWI 012054Z 32011G18KT 10SM BKN075 13/M04 A3014 RMK AO2 SLP205 T01331044 53000
KDMW - Carroll Cnty, Maryland, USA
Distance from station: WNW 30mi, 48km
Updated: Wed, 01-Apr-2015 5:00pm EDT
Partly cloudy
Partly cloudy
 Wind from NNW
Wind: NNW 12 mph , 19 km/h, Gust: 16 mph , 26 km/h
Temperature: 55°F , 13°C
Dew Point: 21°F , -6°C
Humidity: 26%
Barometer: 30.14 inHg , 1020.7 hPa
Clouds: Partly cloudy
Visibility: 10 miles , 16 km
Cloud details: Partly cloudy 7000 ft
2015/04/01 21:00 KDMW 012100Z AUTO 34010G14KT 10SM SCT070 13/M06 A3014 RMK AO2
 
KNAK - Annapolis/Naval, Maryland, USA
Distance from station: S 30mi, 48km
Updated: Wed, 01-Apr-2015 4:54pm EDT
Few Clouds
Few Clouds
 Wind from NW
Wind: NW 13 mph , 20 km/h, Gust: 18 mph , 30 km/h
Temperature: 55°F , 13°C
Dew Point: 25°F , -4°C
Humidity: 31%
Barometer: 30.14 inHg , 1020.7 hPa
Clouds: Few Clouds
Visibility: 10 miles , 16 km
Cloud details: Few Clouds 8500 ft
2015/04/01 20:54 KNAK 012054Z AUTO 31011G16KT 10SM FEW085 13/M04 A3014 RMK AO2 SLP209 T01331044 53001
KW29 - Stevensville, Maryland, USA
Distance from station: SSE 31mi, 50km
Updated: Wed, 01-Apr-2015 5:00pm EDT

 Wind from NW
Wind: NW 6 mph , 9 km/h
Temperature: 54°F , 12°C
Dew Point: 28°F , -2°C
Humidity: 38%
Barometer: 30.15 inHg , 1021 hPa
Visibility: 10 miles , 16 km
2015/04/01 21:00 KW29 012100Z AUTO 31005KT 10SM 12/M02 A3015 RMK AO1
 
KCGS - College Park, Maryland, USA
Distance from station: SW 38mi, 61km
Updated: Wed, 01-Apr-2015 5:00pm EDT
Mostly cloudy
Mostly cloudy
 Wind from NNW
Wind: NNW 12 mph , 19 km/h
Temperature: 57°F , 14°C
Dew Point: 27°F , -3°C
Humidity: 31%
Barometer: 30.15 inHg , 1021 hPa
Clouds: Mostly cloudy
Visibility: 10 miles , 16 km
Cloud details: Mostly cloudy 7500 ft
2015/04/01 21:00 KCGS 012100Z AUTO 34010KT 10SM BKN075 14/M03 A3015 RMK AO1
KGAI - Gaithersburg, Maryland, USA
Distance from station: WSW 40mi, 65km
Updated: Wed, 01-Apr-2015 4:55pm EDT
Partly cloudy
Partly cloudy
 Wind from N
Wind: N 7 mph , 11 km/h
Temperature: 57°F , 14°C
Dew Point: 27°F , -3°C
Humidity: 31%
Barometer: 30.17 inHg , 1021.7 hPa
Clouds: Partly cloudy
Visibility: 10 miles , 16 km
Cloud details: Partly cloudy 7000 ft
2015/04/01 20:55 KGAI 012055Z AUTO 36006KT 10SM SCT070 14/M03 A3017 RMK AO1 57007
 
KTHV - York, Pennsylvania, USA
Distance from station: NNW 40mi, 65km
Updated: Wed, 01-Apr-2015 4:53pm EDT
Few Clouds
Few Clouds
 Wind from NNW
Wind: NNW 10 mph , 17 km/h, Gust: 21 mph , 33 km/h
Temperature: 55°F , 13°C
Dew Point: 27°F , -3°C
Humidity: 33%
Barometer: 30.13 inHg , 1020.3 hPa
Clouds: Few Clouds
Visibility: 10 miles , 16 km
Cloud details: Few Clouds 6500 ft
2015/04/01 20:53 KTHV 012053Z AUTO 33009G18KT 10SM FEW065 13/M03 A3013 RMK AO2 SLP210 T01331028 55000
KFDK - Frederick, Maryland, USA
Distance from station: W 47mi, 75km
Updated: Wed, 01-Apr-2015 4:48pm EDT
Partly cloudy
Partly cloudy
 Wind from NNW
Wind: NNW 12 mph , 19 km/h, Gust: 17 mph , 28 km/h
Temperature: 59°F , 15°C
Dew Point: 18°F , -8°C
Humidity: 20%
Barometer: 30.17 inHg , 1021.7 hPa
Clouds: Partly cloudy
Visibility: 10 miles , 16 km
Cloud details: Partly cloudy 8000 ft
2015/04/01 20:48 KFDK 012048Z 33010G15KT 10SM SCT080 15/M08 A3017
 
KESN - Easton/Newnam, Maryland, USA
Distance from station: SSE 48mi, 78km
Updated: Wed, 01-Apr-2015 4:50pm EDT
Clear
Clear
 Wind from N
Wind: N 14 mph , 22 km/h, Gust: 22 mph , 35 km/h
Temperature: 57°F , 14°C
Dew Point: 28°F , -2°C
Humidity: 33%
Barometer: 30.18 inHg , 1022 hPa
Clouds: Clear
Visibility: 10 miles , 16 km
2015/04/01 20:50 KESN 012050Z 35012G19KT 10SM SKC 14/M02 A3018
KDCA - Washington/Natl, Washington D.c., USA
Distance from station: SW 49mi, 79km
Updated: Wed, 01-Apr-2015 4:52pm EDT
Partly cloudy
Partly cloudy
 Wind from NNW
Wind: NNW 16 mph , 26 km/h, Gust: 23 mph , 37 km/h
Temperature: 61°F , 16°C
Dew Point: 27°F , -3°C
Humidity: 27%
Barometer: 30.16 inHg , 1021.3 hPa
Clouds: Partly cloudy
Visibility: 10 miles , 16 km
Cloud details: Partly cloudy 6500 ft
2015/04/01 20:52 KDCA 012052Z 34014G20KT 10SM SCT065 16/M03 A3016 RMK AO2 SLP212 T01611028 56001
 
KLNS - Lancaster, Pennsylvania, USA
Distance from station: N 49mi, 79km
Updated: Wed, 01-Apr-2015 4:53pm EDT
Clear
Clear
 Wind from NW
Wind: NW 15 mph , 24 km/h, Gust: 24 mph , 39 km/h
Temperature: 54°F , 12°C
Dew Point: 23°F , -5°C
Humidity: 30%
Barometer: 30.13 inHg , 1020.3 hPa
Clouds: Clear
Visibility: 10 miles , 16 km
2015/04/01 20:53 KLNS 012053Z 32013G21KT 10SM CLR 12/M05 A3013 RMK AO2 SLP203 T01171050 53002
KILG - Wilmington, Delaware, USA
Distance from station: ENE 50mi, 81km
Updated: Wed, 01-Apr-2015 4:51pm EDT
Clear
Clear
 Wind from NW
Wind: NW 18 mph , 30 km/h, Gust: 26 mph , 43 km/h
Temperature: 55°F , 13°C
Dew Point: 19°F , -7°C
Humidity: 24%
Barometer: 30.13 inHg , 1020.3 hPa
Clouds: Clear
Visibility: 10 miles , 16 km
2015/04/01 20:51 KILG 012051Z 31016G23KT 10SM CLR 13/M07 A3013 RMK AO2 SLP203 T01331072 53001